<?xml version="1.0" encoding="UTF-8" standalone="no" ?>
<gpx xmlns="http://www.topografix.com/GPX/1/1" xmlns:xsi="http://www.w3.org/2001/XMLSchema-instance" xsi:schemaLocation="http://www.topografix.com/GPX/1/1 http://www.topografix.com/GPX/1/1/gpx.xsd" version="1.1" creator="VisuGPX - https://www.visugpx.com">
  <metadata>
    <name>Ecrins 2021</name>
  </metadata>
  <wpt lat="44.8396" lon="6.47901">
    <ele>1191.4</ele>
    <name><![CDATA[Vallouise]]></name>
  </wpt>
  <wpt lat="44.83903" lon="6.47524">
    <ele>1196.1</ele>
    <name><![CDATA[Pont des Fontaines]]></name>
  </wpt>
  <wpt lat="44.83931" lon="6.45488">
    <ele>1245.7</ele>
    <name><![CDATA[Pont des Places]]></name>
  </wpt>
  <wpt lat="44.83632" lon="6.44255">
    <ele>1309.8</ele>
    <name><![CDATA[Eboulement]]></name>
  </wpt>
  <wpt lat="44.83869" lon="6.44564">
    <ele>1289.8</ele>
    <name><![CDATA[Les Grésourières]]></name>
  </wpt>
  <wpt lat="44.83597" lon="6.43037">
    <ele>1466.9</ele>
    <name><![CDATA[Béassac]]></name>
  </wpt>
  <wpt lat="44.83117" lon="6.40174">
    <ele>1622.1</ele>
    <name><![CDATA[Entre les Aygues]]></name>
  </wpt>
  <wpt lat="44.83049" lon="6.40124">
    <ele>1609.1</ele>
    <name><![CDATA[Passerelle sur le torrent des Bans]]></name>
  </wpt>
  <wpt lat="44.81358" lon="6.38864">
    <ele>1836.5</ele>
    <name><![CDATA[Panneau d'entrée dans le parc des Ecrins]]></name>
  </wpt>
  <wpt lat="44.80661" lon="6.37616">
    <ele>1939.8</ele>
    <name><![CDATA[Passerelle sur le ruisseau du Ravin du Blanc]]></name>
  </wpt>
  <wpt lat="44.8009" lon="6.36589">
    <ele>2016.2</ele>
    <name><![CDATA[Passerelle sur le ruisseau de Chanteloube]]></name>
  </wpt>
  <wpt lat="44.79287" lon="6.36504">
    <ele>2131</ele>
    <name><![CDATA[1er ressaut]]></name>
  </wpt>
  <wpt lat="44.79042" lon="6.36483">
    <ele>2165</ele>
    <name><![CDATA[2ème ressaut]]></name>
  </wpt>
  <wpt lat="44.78733" lon="6.36223">
    <ele>2279.1</ele>
    <name><![CDATA[Champ Rond]]></name>
  </wpt>
  <wpt lat="44.78227" lon="6.35819">
    <ele>2498.2</ele>
    <name><![CDATA[Torrent de la Saume]]></name>
  </wpt>
  <wpt lat="44.76133" lon="6.34075">
    <ele>2074.9</ele>
    <name><![CDATA[Cabanes de Rougnoux]]></name>
  </wpt>
  <wpt lat="44.7633" lon="6.33688">
    <ele>1969.9</ele>
    <name><![CDATA[Passerelle sur le torrent de Rougnoux]]></name>
  </wpt>
  <wpt lat="44.7672" lon="6.32888">
    <ele>1831.2</ele>
    <name><![CDATA[Bivouac du refuge du Pré de la Chaumette]]></name>
  </wpt>
  <wpt lat="44.7729" lon="6.31142">
    <ele>2512.9</ele>
    <name><![CDATA[Sous le Puy de la Chaumette]]></name>
  </wpt>
  <wpt lat="44.81151" lon="6.29603">
    <ele>1704.7</ele>
    <name><![CDATA[Passerelle sur le torrent de Vallonpierre]]></name>
  </wpt>
  <wpt lat="44.81485" lon="6.29576">
    <ele>1660.5</ele>
    <name><![CDATA[Torrent de Vallonpierre]]></name>
  </wpt>
  <wpt lat="44.82482" lon="6.29325">
    <ele>1569.6</ele>
    <name><![CDATA[Passerelle sur la Séveraisse]]></name>
  </wpt>
  <wpt lat="44.82779" lon="6.29194">
    <ele>1545.2</ele>
    <name><![CDATA[Passerelle sur le Torrent de Pis Baumette]]></name>
  </wpt>
  <wpt lat="44.83173" lon="6.28114">
    <ele>1439</ele>
    <name><![CDATA[Passerelle sur le Torrent du Gioberney]]></name>
  </wpt>
  <wpt lat="44.8266" lon="6.26079">
    <ele>1402.8</ele>
    <name><![CDATA[Rif du Sap]]></name>
  </wpt>
  <wpt lat="44.82438" lon="6.23313">
    <ele>1174.1</ele>
    <name><![CDATA[Pont du Hameau du Bourg]]></name>
  </wpt>
  <wpt lat="44.81982" lon="6.21913">
    <ele>1151.2</ele>
    <name><![CDATA[Passerelle du Casset]]></name>
  </wpt>
  <trk>
    <name><![CDATA[E7 La Chapelle - Refuge des Souffles]]></name>
    <trkseg>
      <trkpt lat="44.8175" lon="6.19318">
        <ele>1090</ele>
        <time>2020-10-27T09:17:34+01:00</time>
      </trkpt>
      <trkpt lat="44.81759" lon="6.19176">
        <ele>1087</ele>
        <time>2020-10-27T09:17:39+01:00</time>
      </trkpt>
      <trkpt lat="44.81787" lon="6.19009">
        <ele>1080</ele>
        <time>2020-10-27T09:17:44+01:00</time>
      </trkpt>
      <trkpt lat="44.81817" lon="6.18966">
        <ele>1078</ele>
        <time>2020-10-27T09:17:49+01:00</time>
      </trkpt>
      <trkpt lat="44.8189" lon="6.18919">
        <ele>1077</ele>
        <time>2020-10-27T09:17:54+01:00</time>
      </trkpt>
      <trkpt lat="44.81936" lon="6.18777">
        <ele>1075</ele>
        <time>2020-10-27T09:17:59+01:00</time>
      </trkpt>
      <trkpt lat="44.81969" lon="6.18747">
        <ele>1078</ele>
        <time>2020-10-27T09:18:04+01:00</time>
      </trkpt>
      <trkpt lat="44.8196" lon="6.18627">
        <ele>1075</ele>
        <time>2020-10-27T09:18:09+01:00</time>
      </trkpt>
      <trkpt lat="44.8195" lon="6.1847">
        <ele>1071</ele>
        <time>2020-10-27T09:18:14+01:00</time>
      </trkpt>
      <trkpt lat="44.81985" lon="6.18314">
        <ele>1070</ele>
        <time>2020-10-27T09:18:19+01:00</time>
      </trkpt>
      <trkpt lat="44.82009" lon="6.18206">
        <ele>1070</ele>
        <time>2020-10-27T09:18:24+01:00</time>
      </trkpt>
      <trkpt lat="44.82004" lon="6.18054">
        <ele>1070</ele>
        <time>2020-10-27T09:18:29+01:00</time>
      </trkpt>
      <trkpt lat="44.82015" lon="6.18039">
        <ele>1070</ele>
        <time>2020-10-27T09:18:34+01:00</time>
      </trkpt>
      <trkpt lat="44.82047" lon="6.17934">
        <ele>1070</ele>
        <time>2020-10-27T09:18:39+01:00</time>
      </trkpt>
      <trkpt lat="44.82047" lon="6.17863">
        <ele>1071</ele>
        <time>2020-10-27T09:18:44+01:00</time>
      </trkpt>
      <trkpt lat="44.82032" lon="6.17769">
        <ele>1070</ele>
        <time>2020-10-27T09:18:49+01:00</time>
      </trkpt>
      <trkpt lat="44.82106" lon="6.1743">
        <ele>1061</ele>
        <time>2020-10-27T09:18:54+01:00</time>
      </trkpt>
      <trkpt lat="44.82099" lon="6.17391">
        <ele>1059</ele>
        <time>2020-10-27T09:18:59+01:00</time>
      </trkpt>
      <trkpt lat="44.82128" lon="6.17337">
        <ele>1062</ele>
        <time>2020-10-27T09:19:04+01:00</time>
      </trkpt>
      <trkpt lat="44.82088" lon="6.17299">
        <ele>1056</ele>
        <time>2020-10-27T09:19:09+01:00</time>
      </trkpt>
      <trkpt lat="44.821" lon="6.17219">
        <ele>1056</ele>
        <time>2020-10-27T09:19:14+01:00</time>
      </trkpt>
      <trkpt lat="44.82128" lon="6.17071">
        <ele>1053</ele>
        <time>2020-10-27T09:19:19+01:00</time>
      </trkpt>
      <trkpt lat="44.82213" lon="6.16919">
        <ele>1050</ele>
        <time>2020-10-27T09:19:24+01:00</time>
      </trkpt>
      <trkpt lat="44.82237" lon="6.1673">
        <ele>1050</ele>
        <time>2020-10-27T09:19:29+01:00</time>
      </trkpt>
      <trkpt lat="44.82181" lon="6.16434">
        <ele>1050</ele>
        <time>2020-10-27T09:19:34+01:00</time>
      </trkpt>
      <trkpt lat="44.82099" lon="6.16245">
        <ele>1049</ele>
        <time>2020-10-27T09:19:39+01:00</time>
      </trkpt>
      <trkpt lat="44.82087" lon="6.16222">
        <ele>1049</ele>
        <time>2020-10-27T09:19:44+01:00</time>
      </trkpt>
      <trkpt lat="44.82117" lon="6.16149">
        <ele>1049</ele>
        <time>2020-10-27T09:19:49+01:00</time>
      </trkpt>
      <trkpt lat="44.82144" lon="6.16016">
        <ele>1041</ele>
        <time>2020-10-27T09:19:54+01:00</time>
      </trkpt>
      <trkpt lat="44.82169" lon="6.15668">
        <ele>1038</ele>
        <time>2020-10-27T09:19:59+01:00</time>
      </trkpt>
      <trkpt lat="44.82301" lon="6.15524">
        <ele>1035</ele>
        <time>2020-10-27T09:20:04+01:00</time>
      </trkpt>
      <trkpt lat="44.82329" lon="6.15387">
        <ele>1032</ele>
        <time>2020-10-27T09:20:09+01:00</time>
      </trkpt>
      <trkpt lat="44.82309" lon="6.15278">
        <ele>1030</ele>
        <time>2020-10-27T09:20:14+01:00</time>
      </trkpt>
      <trkpt lat="44.82351" lon="6.15198">
        <ele>1030</ele>
        <time>2020-10-27T09:20:19+01:00</time>
      </trkpt>
      <trkpt lat="44.82354" lon="6.15033">
        <ele>1030</ele>
        <time>2020-10-27T09:20:24+01:00</time>
      </trkpt>
      <trkpt lat="44.8242" lon="6.15014">
        <ele>1030</ele>
        <time>2020-10-27T09:20:29+01:00</time>
      </trkpt>
      <trkpt lat="44.82415" lon="6.14921">
        <ele>1030</ele>
        <time>2020-10-27T09:20:34+01:00</time>
      </trkpt>
      <trkpt lat="44.82488" lon="6.14874">
        <ele>1061</ele>
        <time>2020-10-27T09:20:39+01:00</time>
      </trkpt>
      <trkpt lat="44.82482" lon="6.1472">
        <ele>1046</ele>
        <time>2020-10-27T09:20:44+01:00</time>
      </trkpt>
      <trkpt lat="44.82478" lon="6.14623">
        <ele>1035</ele>
        <time>2020-10-27T09:20:49+01:00</time>
      </trkpt>
      <trkpt lat="44.82526" lon="6.14492">
        <ele>1034</ele>
        <time>2020-10-27T09:20:54+01:00</time>
      </trkpt>
      <trkpt lat="44.82578" lon="6.14456">
        <ele>1037</ele>
        <time>2020-10-27T09:20:59+01:00</time>
      </trkpt>
      <trkpt lat="44.82618" lon="6.14499">
        <ele>1046</ele>
        <time>2020-10-27T09:21:04+01:00</time>
      </trkpt>
      <trkpt lat="44.8263" lon="6.14458">
        <ele>1044</ele>
        <time>2020-10-27T09:21:09+01:00</time>
      </trkpt>
      <trkpt lat="44.82666" lon="6.14464">
        <ele>1051</ele>
        <time>2020-10-27T09:21:14+01:00</time>
      </trkpt>
      <trkpt lat="44.82638" lon="6.14531">
        <ele>1056</ele>
        <time>2020-10-27T09:21:19+01:00</time>
      </trkpt>
      <trkpt lat="44.82671" lon="6.14595">
        <ele>1078</ele>
        <time>2020-10-27T09:21:24+01:00</time>
      </trkpt>
      <trkpt lat="44.82697" lon="6.14629">
        <ele>1080</ele>
        <time>2020-10-27T09:21:29+01:00</time>
      </trkpt>
      <trkpt lat="44.82732" lon="6.14597">
        <ele>1092</ele>
        <time>2020-10-27T09:21:34+01:00</time>
      </trkpt>
      <trkpt lat="44.8273" lon="6.14702">
        <ele>1108</ele>
        <time>2020-10-27T09:21:39+01:00</time>
      </trkpt>
      <trkpt lat="44.82773" lon="6.14645">
        <ele>1129</ele>
        <time>2020-10-27T09:21:44+01:00</time>
      </trkpt>
      <trkpt lat="44.82854" lon="6.14507">
        <ele>1153</ele>
        <time>2020-10-27T09:21:49+01:00</time>
      </trkpt>
      <trkpt lat="44.82915" lon="6.14421">
        <ele>1170</ele>
        <time>2020-10-27T09:21:54+01:00</time>
      </trkpt>
      <trkpt lat="44.82934" lon="6.14357">
        <ele>1176</ele>
        <time>2020-10-27T09:21:59+01:00</time>
      </trkpt>
      <trkpt lat="44.82957" lon="6.14359">
        <ele>1184</ele>
        <time>2020-10-27T09:22:04+01:00</time>
      </trkpt>
      <trkpt lat="44.82992" lon="6.14351">
        <ele>1192</ele>
        <time>2020-10-27T09:22:09+01:00</time>
      </trkpt>
      <trkpt lat="44.83038" lon="6.14342">
        <ele>1193</ele>
        <time>2020-10-27T09:22:14+01:00</time>
      </trkpt>
      <trkpt lat="44.8316" lon="6.14271">
        <ele>1225</ele>
        <time>2020-10-27T09:22:19+01:00</time>
      </trkpt>
      <trkpt lat="44.83185" lon="6.14241">
        <ele>1225</ele>
        <time>2020-10-27T09:22:24+01:00</time>
      </trkpt>
      <trkpt lat="44.83258" lon="6.14346">
        <ele>1315</ele>
        <time>2020-10-27T09:22:29+01:00</time>
      </trkpt>
      <trkpt lat="44.83307" lon="6.14299">
        <ele>1317</ele>
        <time>2020-10-27T09:22:34+01:00</time>
      </trkpt>
      <trkpt lat="44.83318" lon="6.14269">
        <ele>1308</ele>
        <time>2020-10-27T09:22:39+01:00</time>
      </trkpt>
      <trkpt lat="44.83351" lon="6.14241">
        <ele>1331</ele>
        <time>2020-10-27T09:22:44+01:00</time>
      </trkpt>
      <trkpt lat="44.83348" lon="6.14211">
        <ele>1325</ele>
        <time>2020-10-27T09:22:49+01:00</time>
      </trkpt>
      <trkpt lat="44.83371" lon="6.14198">
        <ele>1335</ele>
        <time>2020-10-27T09:22:54+01:00</time>
      </trkpt>
      <trkpt lat="44.83405" lon="6.14134">
        <ele>1316</ele>
        <time>2020-10-27T09:22:59+01:00</time>
      </trkpt>
      <trkpt lat="44.83471" lon="6.14091">
        <ele>1328</ele>
        <time>2020-10-27T09:23:04+01:00</time>
      </trkpt>
      <trkpt lat="44.83485" lon="6.14054">
        <ele>1327</ele>
        <time>2020-10-27T09:23:09+01:00</time>
      </trkpt>
      <trkpt lat="44.83535" lon="6.13994">
        <ele>1347</ele>
        <time>2020-10-27T09:23:14+01:00</time>
      </trkpt>
      <trkpt lat="44.83513" lon="6.14074">
        <ele>1354</ele>
        <time>2020-10-27T09:23:19+01:00</time>
      </trkpt>
      <trkpt lat="44.83598" lon="6.13986">
        <ele>1375</ele>
        <time>2020-10-27T09:23:24+01:00</time>
      </trkpt>
      <trkpt lat="44.83537" lon="6.14151">
        <ele>1400</ele>
        <time>2020-10-27T09:23:29+01:00</time>
      </trkpt>
      <trkpt lat="44.83461" lon="6.14269">
        <ele>1414</ele>
        <time>2020-10-27T09:23:34+01:00</time>
      </trkpt>
      <trkpt lat="44.83537" lon="6.14228">
        <ele>1434</ele>
        <time>2020-10-27T09:23:39+01:00</time>
      </trkpt>
      <trkpt lat="44.83519" lon="6.14284">
        <ele>1451</ele>
        <time>2020-10-27T09:23:44+01:00</time>
      </trkpt>
      <trkpt lat="44.83554" lon="6.14256">
        <ele>1454</ele>
        <time>2020-10-27T09:23:49+01:00</time>
      </trkpt>
      <trkpt lat="44.83543" lon="6.14303">
        <ele>1475</ele>
        <time>2020-10-27T09:23:54+01:00</time>
      </trkpt>
      <trkpt lat="44.83587" lon="6.1426">
        <ele>1474</ele>
        <time>2020-10-27T09:23:59+01:00</time>
      </trkpt>
      <trkpt lat="44.83698" lon="6.14202">
        <ele>1504</ele>
        <time>2020-10-27T09:24:04+01:00</time>
      </trkpt>
      <trkpt lat="44.83659" lon="6.14275">
        <ele>1526</ele>
        <time>2020-10-27T09:24:09+01:00</time>
      </trkpt>
      <trkpt lat="44.83729" lon="6.14228">
        <ele>1534</ele>
        <time>2020-10-27T09:24:14+01:00</time>
      </trkpt>
      <trkpt lat="44.83789" lon="6.14175">
        <ele>1546</ele>
        <time>2020-10-27T09:24:19+01:00</time>
      </trkpt>
      <trkpt lat="44.83751" lon="6.14271">
        <ele>1570</ele>
        <time>2020-10-27T09:24:24+01:00</time>
      </trkpt>
      <trkpt lat="44.83837" lon="6.1422">
        <ele>1585</ele>
        <time>2020-10-27T09:24:29+01:00</time>
      </trkpt>
      <trkpt lat="44.83977" lon="6.14155">
        <ele>1612</ele>
        <time>2020-10-27T09:24:34+01:00</time>
      </trkpt>
      <trkpt lat="44.83926" lon="6.14233">
        <ele>1625</ele>
        <time>2020-10-27T09:24:39+01:00</time>
      </trkpt>
      <trkpt lat="44.83894" lon="6.14265">
        <ele>1631</ele>
        <time>2020-10-27T09:24:44+01:00</time>
      </trkpt>
      <trkpt lat="44.83969" lon="6.1426">
        <ele>1657</ele>
        <time>2020-10-27T09:24:49+01:00</time>
      </trkpt>
      <trkpt lat="44.83955" lon="6.14295">
        <ele>1670</ele>
        <time>2020-10-27T09:24:54+01:00</time>
      </trkpt>
      <trkpt lat="44.83977" lon="6.14305">
        <ele>1684</ele>
        <time>2020-10-27T09:24:59+01:00</time>
      </trkpt>
      <trkpt lat="44.84042" lon="6.14275">
        <ele>1691</ele>
        <time>2020-10-27T09:25:04+01:00</time>
      </trkpt>
      <trkpt lat="44.83995" lon="6.14366">
        <ele>1724</ele>
        <time>2020-10-27T09:25:09+01:00</time>
      </trkpt>
      <trkpt lat="44.84097" lon="6.14329">
        <ele>1735</ele>
        <time>2020-10-27T09:25:14+01:00</time>
      </trkpt>
      <trkpt lat="44.84156" lon="6.14381">
        <ele>1765</ele>
        <time>2020-10-27T09:25:19+01:00</time>
      </trkpt>
      <trkpt lat="44.84209" lon="6.14284">
        <ele>1763</ele>
        <time>2020-10-27T09:25:24+01:00</time>
      </trkpt>
      <trkpt lat="44.84304" lon="6.14284">
        <ele>1786</ele>
        <time>2020-10-27T09:25:29+01:00</time>
      </trkpt>
      <trkpt lat="44.84226" lon="6.1437">
        <ele>1809</ele>
        <time>2020-10-27T09:25:34+01:00</time>
      </trkpt>
      <trkpt lat="44.84296" lon="6.14361">
        <ele>1829</ele>
        <time>2020-10-27T09:25:39+01:00</time>
      </trkpt>
      <trkpt lat="44.84217" lon="6.14473">
        <ele>1848</ele>
        <time>2020-10-27T09:25:44+01:00</time>
      </trkpt>
      <trkpt lat="44.84285" lon="6.14473">
        <ele>1870</ele>
        <time>2020-10-27T09:25:49+01:00</time>
      </trkpt>
      <trkpt lat="44.84331" lon="6.14432">
        <ele>1877</ele>
        <time>2020-10-27T09:25:54+01:00</time>
      </trkpt>
      <trkpt lat="44.8441" lon="6.14426">
        <ele>1891</ele>
        <time>2020-10-27T09:25:59+01:00</time>
      </trkpt>
      <trkpt lat="44.84497" lon="6.14514">
        <ele>1922</ele>
        <time>2020-10-27T09:26:04+01:00</time>
      </trkpt>
      <trkpt lat="44.84459" lon="6.14593">
        <ele>1947</ele>
        <time>2020-10-27T09:26:09+01:00</time>
      </trkpt>
      <trkpt lat="44.84488" lon="6.14627">
        <ele>1958</ele>
        <time>2020-10-27T09:26:14+01:00</time>
      </trkpt>
    </trkseg>
  </trk>
</gpx>